Time;durP1;ratioP1;P1;durP2;ratioP2;P2;SDS_P1;SDS_P2;PMS_P1;PMS_P2;Temp;Humidity;BMP_temperature;BMP_pressure;BME280_temperature;BME280_humidity;BME280_pressure;Samples;Min_cycle;Max_cycle;Signal;HPM_P1;HPM_P2
2022/07/11 00:00:16;;;;;;;7.05;1.90;;;;;;;;;;5030636;28;20026;-50
2022/07/11 00:02:42;;;;;;;5.43;1.17;;;;;;;;;;5026516;28;20022;-50
2022/07/11 00:05:09;;;;;;;3.78;1.20;;;;;;;;;;5027226;28;20029;-53
2022/07/11 00:07:35;;;;;;;4.20;1.35;;;;;;;;;;5025377;28;20041;-52
2022/07/11 00:10:01;;;;;;;5.38;1.20;;;;;;;;;;5019145;28;20072;-51
2022/07/11 00:12:27;;;;;;;9.52;1.33;;;;;;;;;;5021760;28;20118;-53
2022/07/11 00:14:54;;;;;;;4.45;1.30;;;;;;;;;;5015669;28;20049;-52
2022/07/11 00:17:20;;;;;;;6.38;1.80;;;;;;;;;;5031788;28;20041;-52
2022/07/11 00:19:46;;;;;;;4.80;1.40;;;;;;;;;;5024187;28;20029;-53
2022/07/11 00:22:12;;;;;;;4.47;1.40;;;;;;;;;;5031499;28;20033;-54
2022/07/11 00:24:38;;;;;;;5.82;1.20;;;;;;;;;;5030542;28;20037;-53
2022/07/11 00:27:05;;;;;;;2.80;1.45;;;;;;;;;;5022933;28;20038;-53
2022/07/11 00:29:31;;;;;;;7.38;1.52;;;;;;;;;;5023553;28;20128;-54
2022/07/11 00:31:57;;;;;;;6.13;1.38;;;;;;;;;;5029955;28;20601;-54
2022/07/11 00:34:24;;;;;;;4.72;1.33;;;;;;;;;;5019870;28;20026;-53
2022/07/11 00:36:50;;;;;;;5.22;1.30;;;;;;;;;;5022850;28;20037;-50
2022/07/11 00:39:16;;;;;;;3.78;1.10;;;;;;;;;;5022724;28;20025;-49
2022/07/11 00:41:42;;;;;;;4.72;1.55;;;;;;;;;;5023281;28;20025;-50
2022/07/11 00:44:08;;;;;;;4.75;1.20;;;;;;;;;;5018132;28;20104;-52
2022/07/11 00:46:34;;;;;;;4.75;1.05;;;;;;;;;;5018094;28;20577;-52
2022/07/11 00:49:00;;;;;;;4.05;1.25;;;;;;;;;;5023399;28;20091;-51
2022/07/11 00:51:27;;;;;;;7.30;1.20;;;;;;;;;;5021357;28;20052;-51
2022/07/11 00:53:54;;;;;;;4.18;1.00;;;;;;;;;;5031612;28;20469;-55
2022/07/11 00:56:21;;;;;;;6.72;1.38;;;;;;;;;;5017728;28;20044;-51
2022/07/11 00:58:50;;;;;;;5.82;1.33;;;;;;;;;;5031949;28;20527;-50
2022/07/11 01:01:17;;;;;;;7.03;1.10;;;;;;;;;;5029489;28;20018;-57
2022/07/11 01:03:43;;;;;;;4.82;1.30;;;;;;;;;;5031956;28;20022;-56
2022/07/11 01:06:09;;;;;;;7.28;1.15;;;;;;;;;;5032354;28;20187;-53
2022/07/11 01:08:36;;;;;;;4.40;1.23;;;;;;;;;;5032549;28;20033;-56
2022/07/11 01:11:02;;;;;;;5.38;1.27;;;;;;;;;;5031338;28;20033;-55
2022/07/11 01:13:28;;;;;;;12.13;1.92;;;;;;;;;;5032635;28;20104;-53
2022/07/11 01:16:10;;;;;;;7.63;1.58;;;;;;;;;;5028269;28;20048;-56
2022/07/11 01:18:36;;;;;;;2.85;1.13;;;;;;;;;;5028388;28;20036;-56
2022/07/11 01:21:07;;;;;;;6.35;1.30;;;;;;;;;;5031541;28;20572;-55
2022/07/11 01:23:33;;;;;;;3.05;1.02;;;;;;;;;;5032501;28;20461;-56
2022/07/11 01:25:59;;;;;;;5.72;1.23;;;;;;;;;;5027105;28;20029;-53
2022/07/11 01:28:25;;;;;;;5.82;1.17;;;;;;;;;;5023192;28;20499;-56
2022/07/11 01:30:51;;;;;;;6.03;1.08;;;;;;;;;;5031871;28;20122;-56
2022/07/11 01:33:17;;;;;;;5.07;1.30;;;;;;;;;;5031959;28;20030;-56
2022/07/11 01:35:43;;;;;;;6.22;1.60;;;;;;;;;;5031169;28;20472;-56
2022/07/11 01:38:09;;;;;;;4.20;1.42;;;;;;;;;;5032380;28;20025;-55
2022/07/11 01:40:35;;;;;;;5.10;1.90;;;;;;;;;;5031952;28;20091;-57
2022/07/11 01:43:01;;;;;;;2.75;1.17;;;;;;;;;;5031853;28;20029;-56
2022/07/11 01:45:27;;;;;;;5.15;1.25;;;;;;;;;;5025241;28;20029;-55
2022/07/11 01:47:54;;;;;;;8.20;1.30;;;;;;;;;;5025795;28;20059;-55
2022/07/11 01:50:20;;;;;;;3.22;1.40;;;;;;;;;;5020098;28;20065;-55
2022/07/11 01:52:46;;;;;;;7.35;1.50;;;;;;;;;;5030080;28;20053;-56
2022/07/11 01:55:12;;;;;;;4.50;1.15;;;;;;;;;;5020630;28;20053;-56
2022/07/11 01:57:38;;;;;;;5.03;1.33;;;;;;;;;;5031149;28;20034;-56
2022/07/11 02:00:07;;;;;;;3.80;1.08;;;;;;;;;;5020286;28;20022;-55
2022/07/11 02:02:33;;;;;;;7.63;1.30;;;;;;;;;;5035846;28;20029;-55
2022/07/11 02:05:00;;;;;;;6.65;1.30;;;;;;;;;;5022817;28;20041;-56
2022/07/11 02:10:10;;;;;;;6.60;1.30;;;;;;;;;;5028193;28;20100;-56
2022/07/11 02:12:36;;;;;;;4.38;1.23;;;;;;;;;;5019481;28;20404;-54
2022/07/11 02:15:02;;;;;;;9.30;1.90;;;;;;;;;;5026467;28;20056;-55
2022/07/11 02:17:28;;;;;;;6.45;1.25;;;;;;;;;;5019734;28;20036;-56
2022/07/11 02:19:54;;;;;;;5.50;1.45;;;;;;;;;;5021893;28;20473;-56
2022/07/11 02:22:20;;;;;;;6.38;2.00;;;;;;;;;;5026377;28;20029;-55
2022/07/11 02:24:47;;;;;;;4.90;1.27;;;;;;;;;;5024647;28;20037;-56
2022/07/11 02:27:13;;;;;;;3.75;1.20;;;;;;;;;;5019996;28;20022;-53
2022/07/11 02:29:39;;;;;;;3.83;1.10;;;;;;;;;;5028458;28;20034;-54
2022/07/11 02:32:05;;;;;;;5.20;1.30;;;;;;;;;;5027754;28;20061;-55
2022/07/11 02:34:31;;;;;;;6.75;1.92;;;;;;;;;;5015092;28;20030;-54
2022/07/11 02:36:57;;;;;;;6.65;1.50;;;;;;;;;;5013458;28;20030;-56
2022/07/11 02:39:24;;;;;;;10.07;1.58;;;;;;;;;;5030432;28;20026;-56
2022/07/11 02:41:50;;;;;;;3.25;1.27;;;;;;;;;;5029676;28;20160;-52
2022/07/11 02:44:16;;;;;;;8.70;1.75;;;;;;;;;;5028301;28;20021;-54
2022/07/11 02:46:42;;;;;;;5.15;1.52;;;;;;;;;;5028705;28;20032;-56
2022/07/11 02:49:08;;;;;;;3.70;1.25;;;;;;;;;;5020786;28;20029;-55
2022/07/11 02:51:33;;;;;;;3.92;1.45;;;;;;;;;;5030019;28;20029;-56
2022/07/11 02:53:59;;;;;;;5.50;1.58;;;;;;;;;;5018532;28;20152;-55
2022/07/11 02:56:25;;;;;;;3.88;1.45;;;;;;;;;;5019741;28;20077;-55
2022/07/11 02:58:51;;;;;;;6.30;1.88;;;;;;;;;;5018800;28;20052;-55
2022/07/11 03:01:19;;;;;;;2.65;1.40;;;;;;;;;;5019955;28;20026;-55
2022/07/11 03:03:45;;;;;;;6.63;1.40;;;;;;;;;;5021647;28;20533;-54
2022/07/11 03:06:11;;;;;;;10.23;1.80;;;;;;;;;;5020577;28;20041;-55
2022/07/11 03:08:37;;;;;;;3.28;1.42;;;;;;;;;;5020368;28;20033;-56
2022/07/11 03:11:03;;;;;;;6.68;1.83;;;;;;;;;;5024630;28;20038;-55
2022/07/11 03:13:29;;;;;;;7.60;1.70;;;;;;;;;;5016819;28;20033;-55
2022/07/11 03:15:55;;;;;;;9.43;2.42;;;;;;;;;;5022172;28;20095;-55
2022/07/11 03:18:21;;;;;;;5.05;1.30;;;;;;;;;;5024172;28;20028;-56
2022/07/11 03:20:47;;;;;;;6.38;1.50;;;;;;;;;;5029509;28;20071;-55
2022/07/11 03:23:13;;;;;;;7.82;2.15;;;;;;;;;;5028431;28;20117;-56
2022/07/11 03:25:39;;;;;;;5.88;1.60;;;;;;;;;;5031527;28;20370;-56
2022/07/11 03:28:05;;;;;;;5.55;1.45;;;;;;;;;;5022222;28;20064;-56
2022/07/11 03:30:31;;;;;;;7.60;1.38;;;;;;;;;;5029353;28;20079;-54
2022/07/11 03:32:57;;;;;;;7.97;1.70;;;;;;;;;;5024698;28;20034;-55
2022/07/11 03:35:42;;;;;;;4.75;1.42;;;;;;;;;;5024276;28;20036;-56
2022/07/11 03:38:08;;;;;;;3.47;1.50;;;;;;;;;;5023507;28;20509;-54
2022/07/11 03:40:34;;;;;;;8.07;2.20;;;;;;;;;;5022851;28;20033;-55
2022/07/11 03:43:01;;;;;;;5.30;2.00;;;;;;;;;;5028555;28;20040;-55
2022/07/11 03:45:27;;;;;;;3.92;1.65;;;;;;;;;;5034174;28;20603;-55
2022/07/11 03:47:53;;;;;;;7.30;1.70;;;;;;;;;;5026346;28;20160;-56
2022/07/11 03:50:20;;;;;;;6.72;1.88;;;;;;;;;;5020518;28;20040;-54
2022/07/11 03:52:46;;;;;;;5.05;1.40;;;;;;;;;;5032391;28;20608;-56
2022/07/11 03:55:12;;;;;;;4.95;1.80;;;;;;;;;;5033789;28;20050;-55
2022/07/11 03:57:38;;;;;;;6.63;1.70;;;;;;;;;;5031476;28;20038;-55
2022/07/11 04:00:06;;;;;;;7.38;1.88;;;;;;;;;;5031210;28;20029;-55
2022/07/11 04:02:32;;;;;;;4.72;2.15;;;;;;;;;;5028473;28;20053;-54
2022/07/11 04:04:58;;;;;;;7.25;1.45;;;;;;;;;;5027449;28;20025;-55
2022/07/11 04:07:24;;;;;;;8.48;1.77;;;;;;;;;;5026861;28;20034;-56
2022/07/11 04:09:50;;;;;;;4.43;1.60;;;;;;;;;;5027165;28;20038;-56
2022/07/11 04:12:18;;;;;;;4.80;1.70;;;;;;;;;;5029590;28;20135;-56
2022/07/11 04:14:44;;;;;;;7.22;1.60;;;;;;;;;;5018556;28;20135;-54
2022/07/11 04:17:10;;;;;;;7.20;2.15;;;;;;;;;;5022446;28;20076;-55
2022/07/11 04:19:36;;;;;;;5.22;1.98;;;;;;;;;;5029059;28;20029;-55
2022/07/11 04:22:02;;;;;;;3.50;1.75;;;;;;;;;;5031318;28;20429;-56
2022/07/11 04:24:28;;;;;;;8.20;1.67;;;;;;;;;;5032326;28;20113;-56
2022/07/11 04:26:54;;;;;;;7.78;1.65;;;;;;;;;;5030390;28;20038;-56
2022/07/11 04:29:20;;;;;;;4.88;1.58;;;;;;;;;;5028025;28;20033;-56
2022/07/11 04:31:46;;;;;;;5.53;1.52;;;;;;;;;;5024870;28;20370;-55
2022/07/11 04:34:13;;;;;;;8.60;1.85;;;;;;;;;;5033519;28;20112;-56
2022/07/11 04:36:39;;;;;;;7.18;2.00;;;;;;;;;;5027084;28;20029;-56
2022/07/11 04:39:05;;;;;;;7.72;2.00;;;;;;;;;;5043250;28;20045;-55
2022/07/11 04:41:31;;;;;;;7.68;2.08;;;;;;;;;;5031004;28;20022;-55
2022/07/11 04:43:57;;;;;;;8.63;1.73;;;;;;;;;;5029548;28;20079;-56
2022/07/11 04:46:23;;;;;;;9.07;1.83;;;;;;;;;;5028028;28;20033;-54
2022/07/11 04:48:49;;;;;;;5.57;1.70;;;;;;;;;;5028364;28;20044;-56
2022/07/11 04:51:17;;;;;;;4.63;1.30;;;;;;;;;;5029107;28;20100;-55
2022/07/11 04:53:43;;;;;;;5.10;1.90;;;;;;;;;;5020663;28;20117;-55
2022/07/11 04:56:09;;;;;;;3.80;2.05;;;;;;;;;;5027385;28;20489;-55
2022/07/11 04:58:35;;;;;;;6.88;1.83;;;;;;;;;;5028422;28;20018;-56
2022/07/11 05:01:02;;;;;;;7.30;1.88;;;;;;;;;;5032125;28;20029;-55
2022/07/11 05:03:28;;;;;;;4.43;1.70;;;;;;;;;;5021497;28;20026;-56
2022/07/11 05:05:54;;;;;;;8.60;2.08;;;;;;;;;;5024156;28;20112;-56
2022/07/11 05:08:20;;;;;;;11.82;1.98;;;;;;;;;;5027938;28;20033;-56
2022/07/11 05:10:46;;;;;;;6.60;1.90;;;;;;;;;;5029722;28;20060;-56
2022/07/11 05:13:12;;;;;;;8.43;2.55;;;;;;;;;;5015763;28;20042;-56
2022/07/11 05:15:39;;;;;;;6.68;1.65;;;;;;;;;;5029899;28;20037;-56
2022/07/11 05:18:05;;;;;;;7.22;1.88;;;;;;;;;;5028310;28;20424;-56
2022/07/11 05:20:31;;;;;;;7.82;1.95;;;;;;;;;;5021610;28;20032;-56
2022/07/11 05:22:57;;;;;;;4.55;1.48;;;;;;;;;;5022726;28;20026;-55
2022/07/11 05:25:23;;;;;;;7.38;1.90;;;;;;;;;;5021840;28;20040;-56
2022/07/11 05:27:49;;;;;;;5.03;1.52;;;;;;;;;;5040850;28;20075;-54
2022/07/11 05:30:15;;;;;;;3.78;1.50;;;;;;;;;;5028964;28;20433;-55
2022/07/11 05:32:41;;;;;;;8.82;1.85;;;;;;;;;;5027432;28;20047;-55
2022/07/11 05:35:07;;;;;;;6.78;1.52;;;;;;;;;;5021878;28;20401;-54
2022/07/11 05:37:33;;;;;;;5.65;1.85;;;;;;;;;;5029271;28;20033;-54
2022/07/11 05:39:59;;;;;;;9.63;1.88;;;;;;;;;;5030695;28;20112;-56
2022/07/11 05:42:25;;;;;;;11.23;1.90;;;;;;;;;;5031404;28;20041;-55
2022/07/11 05:44:51;;;;;;;7.65;2.40;;;;;;;;;;5030928;28;20480;-55
2022/07/11 05:47:18;;;;;;;8.55;2.50;;;;;;;;;;5027981;28;20451;-56
2022/07/11 05:49:44;;;;;;;8.85;1.85;;;;;;;;;;5019764;28;20434;-56
2022/07/11 05:52:10;;;;;;;7.60;1.92;;;;;;;;;;5026775;28;20483;-56
2022/07/11 05:54:36;;;;;;;5.68;1.33;;;;;;;;;;5024448;28;20025;-56
2022/07/11 05:57:02;;;;;;;6.70;1.92;;;;;;;;;;5025504;28;20037;-56
2022/07/11 05:59:29;;;;;;;7.78;1.63;;;;;;;;;;5039004;28;20021;-56
2022/07/11 06:01:55;;;;;;;9.00;1.70;;;;;;;;;;5032298;28;20056;-56
2022/07/11 06:04:21;;;;;;;6.53;1.63;;;;;;;;;;5028323;28;20064;-55
2022/07/11 06:06:47;;;;;;;7.07;1.73;;;;;;;;;;5024356;28;20112;-56
2022/07/11 06:09:13;;;;;;;13.00;1.80;;;;;;;;;;5034548;28;20087;-56
2022/07/11 06:11:39;;;;;;;6.38;1.80;;;;;;;;;;5021120;28;20029;-54
2022/07/11 06:14:08;;;;;;;7.32;1.48;;;;;;;;;;5028048;28;20516;-55
2022/07/11 06:16:35;;;;;;;11.43;1.65;;;;;;;;;;5027185;28;20033;-56
2022/07/11 06:19:01;;;;;;;3.67;1.50;;;;;;;;;;5030488;28;20040;-56
2022/07/11 06:21:27;;;;;;;6.55;1.35;;;;;;;;;;5029299;28;20096;-54
2022/07/11 06:23:53;;;;;;;8.48;2.38;;;;;;;;;;5032751;28;20021;-57
2022/07/11 06:26:19;;;;;;;8.73;1.48;;;;;;;;;;5026872;28;20056;-55
2022/07/11 06:28:45;;;;;;;6.53;1.80;;;;;;;;;;5025084;28;20444;-56
2022/07/11 06:31:11;;;;;;;10.27;1.95;;;;;;;;;;5026457;28;20037;-57
2022/07/11 06:33:37;;;;;;;5.68;1.50;;;;;;;;;;5035893;28;20025;-56
2022/07/11 06:36:04;;;;;;;5.05;1.45;;;;;;;;;;5017801;28;20030;-56
2022/07/11 06:38:30;;;;;;;16.95;1.85;;;;;;;;;;5026949;28;20026;-55
2022/07/11 06:40:56;;;;;;;5.53;1.65;;;;;;;;;;5034229;28;20084;-57
2022/07/11 06:43:22;;;;;;;7.07;1.58;;;;;;;;;;5022271;28;20421;-55
2022/07/11 06:45:49;;;;;;;6.80;1.40;;;;;;;;;;5028442;28;20075;-57
2022/07/11 06:48:15;;;;;;;8.18;1.67;;;;;;;;;;5027825;28;20044;-56
2022/07/11 06:50:41;;;;;;;9.48;1.45;;;;;;;;;;5033866;28;20064;-55
2022/07/11 06:53:07;;;;;;;7.65;1.52;;;;;;;;;;5033918;28;20026;-56
2022/07/11 06:55:33;;;;;;;8.75;2.08;;;;;;;;;;5028328;28;20298;-56
2022/07/11 06:57:59;;;;;;;6.40;1.20;;;;;;;;;;5024395;28;20494;-55
2022/07/11 07:00:27;;;;;;;6.28;1.45;;;;;;;;;;5012633;28;20057;-54
2022/07/11 07:02:54;;;;;;;6.72;1.48;;;;;;;;;;5022373;28;20108;-56
2022/07/11 07:05:20;;;;;;;11.18;1.60;;;;;;;;;;5021836;28;20413;-56
2022/07/11 07:07:46;;;;;;;8.88;1.70;;;;;;;;;;5016987;28;20034;-57
2022/07/11 07:10:12;;;;;;;4.57;1.08;;;;;;;;;;5023504;28;20079;-57
2022/07/11 07:12:39;;;;;;;4.78;1.55;;;;;;;;;;5035870;28;20420;-57
2022/07/11 07:15:05;;;;;;;7.97;1.67;;;;;;;;;;5018565;28;20029;-55
2022/07/11 07:17:31;;;;;;;6.65;1.40;;;;;;;;;;5036608;28;20125;-55
2022/07/11 07:19:57;;;;;;;12.80;1.30;;;;;;;;;;5029683;28;20086;-56
2022/07/11 07:22:23;;;;;;;5.70;1.45;;;;;;;;;;5021924;28;20084;-55
2022/07/11 07:24:49;;;;;;;4.40;1.23;;;;;;;;;;5024548;28;20083;-55
2022/07/11 07:27:15;;;;;;;10.85;1.75;;;;;;;;;;5022673;28;20116;-56
2022/07/11 07:29:41;;;;;;;4.25;1.20;;;;;;;;;;5030353;28;20447;-54
2022/07/11 07:32:07;;;;;;;6.85;1.45;;;;;;;;;;5016464;28;20049;-57
2022/07/11 07:34:34;;;;;;;9.70;1.95;;;;;;;;;;5022557;28;20040;-55
2022/07/11 07:37:00;;;;;;;5.32;1.35;;;;;;;;;;5020601;28;20026;-57
2022/07/11 07:39:26;;;;;;;6.20;1.75;;;;;;;;;;5029259;28;20025;-54
2022/07/11 07:41:52;;;;;;;3.92;1.33;;;;;;;;;;5025239;28;20026;-56
2022/07/11 07:44:19;;;;;;;6.72;1.67;;;;;;;;;;5027316;28;20022;-56
2022/07/11 07:46:46;;;;;;;13.13;2.03;;;;;;;;;;5026590;28;20034;-56
2022/07/11 07:49:12;;;;;;;8.20;1.33;;;;;;;;;;5017576;28;20060;-55
2022/07/11 07:51:38;;;;;;;7.88;1.17;;;;;;;;;;5022551;28;20033;-56
2022/07/11 07:54:04;;;;;;;6.88;1.45;;;;;;;;;;5029253;28;20465;-55
2022/07/11 07:56:30;;;;;;;9.00;1.55;;;;;;;;;;5026065;28;20070;-57
2022/07/11 07:58:56;;;;;;;4.75;1.35;;;;;;;;;;5028178;28;20092;-57
2022/07/11 08:01:35;;;;;;;6.20;1.33;;;;;;;;;;5020940;28;20026;-56
2022/07/11 08:04:04;;;;;;;6.55;1.85;;;;;;;;;;5019998;28;20420;-57
2022/07/11 08:06:31;;;;;;;6.97;1.55;;;;;;;;;;5030812;28;20629;-57
2022/07/11 08:08:57;;;;;;;6.55;1.40;;;;;;;;;;5026087;28;20090;-57
2022/07/11 08:11:23;;;;;;;6.78;1.33;;;;;;;;;;5026118;28;20030;-56
2022/07/11 08:13:49;;;;;;;5.68;1.08;;;;;;;;;;5019976;28;20033;-57
2022/07/11 08:16:15;;;;;;;4.90;1.20;;;;;;;;;;5019125;28;20037;-57
2022/07/11 08:18:41;;;;;;;6.22;1.30;;;;;;;;;;5023316;28;20194;-56
2022/07/11 08:21:07;;;;;;;6.68;1.30;;;;;;;;;;5025920;28;20033;-56
2022/07/11 08:23:33;;;;;;;4.22;0.90;;;;;;;;;;5026927;28;20056;-56
2022/07/11 08:25:59;;;;;;;5.05;1.20;;;;;;;;;;5026695;28;20067;-56
2022/07/11 08:28:25;;;;;;;2.13;0.80;;;;;;;;;;5025762;28;20032;-55
2022/07/11 08:30:51;;;;;;;8.15;1.30;;;;;;;;;;5027301;28;20037;-56
2022/07/11 08:33:17;;;;;;;6.30;1.35;;;;;;;;;;5026430;28;20030;-54
2022/07/11 08:35:43;;;;;;;4.55;1.13;;;;;;;;;;5029494;28;20025;-56
2022/07/11 08:38:09;;;;;;;5.80;1.27;;;;;;;;;;5031735;28;20029;-56
2022/07/11 08:40:35;;;;;;;6.95;1.35;;;;;;;;;;5025670;28;20030;-56
2022/07/11 08:43:02;;;;;;;6.00;1.13;;;;;;;;;;5025153;28;20017;-56
2022/07/11 08:45:32;;;;;;;7.00;1.08;;;;;;;;;;5030930;28;20031;-56
2022/07/11 08:47:58;;;;;;;4.25;0.95;;;;;;;;;;5027379;28;20100;-51
2022/07/11 08:50:27;;;;;;;5.05;0.90;;;;;;;;;;5029878;28;20727;-57
2022/07/11 08:52:58;;;;;;;4.10;1.10;;;;;;;;;;5032670;28;20127;-54
2022/07/11 08:55:24;;;;;;;8.32;1.58;;;;;;;;;;5039186;28;20080;-55
2022/07/11 08:57:50;;;;;;;5.60;1.25;;;;;;;;;;5030175;28;20029;-58
2022/07/11 09:00:16;;;;;;;5.88;0.80;;;;;;;;;;5025440;28;20017;-54
2022/07/11 09:02:43;;;;;;;6.95;1.10;;;;;;;;;;5032729;28;20025;-56
2022/07/11 09:05:09;;;;;;;6.53;1.33;;;;;;;;;;5035490;28;20017;-56
2022/07/11 09:07:42;;;;;;;9.30;1.90;;;;;;;;;;5033913;28;20097;-57
2022/07/11 09:10:08;;;;;;;7.22;1.52;;;;;;;;;;5021775;28;20067;-56
2022/07/11 09:12:34;;;;;;;10.30;1.17;;;;;;;;;;5033072;28;20116;-57
2022/07/11 09:15:00;;;;;;;6.85;1.40;;;;;;;;;;5031138;28;20040;-57
2022/07/11 09:17:27;;;;;;;6.82;1.35;;;;;;;;;;5021786;28;20108;-56
2022/07/11 09:19:53;;;;;;;3.50;0.88;;;;;;;;;;5034549;28;20094;-57
2022/07/11 09:27:46;;;;;;;8.48;1.48;;;;;;;;;;5029996;28;20083;-56
2022/07/11 09:30:26;;;;;;;5.50;1.10;;;;;;;;;;5027634;28;20536;-57
2022/07/11 09:32:54;;;;;;;6.80;1.10;;;;;;;;;;5021154;28;20038;-57
2022/07/11 09:35:20;;;;;;;4.53;1.10;;;;;;;;;;5026180;28;20036;-56
2022/07/11 09:37:46;;;;;;;8.30;1.63;;;;;;;;;;5030967;28;20042;-57
2022/07/11 09:40:13;;;;;;;6.05;1.30;;;;;;;;;;5030263;28;20381;-57
2022/07/11 09:42:49;;;;;;;7.70;1.35;;;;;;;;;;5032067;28;20049;-57
2022/07/11 09:45:16;;;;;;;4.40;1.10;;;;;;;;;;5031289;28;20373;-57
2022/07/11 09:47:43;;;;;;;10.38;1.70;;;;;;;;;;5022313;28;20508;-58
2022/07/11 09:50:09;;;;;;;6.50;1.20;;;;;;;;;;5033677;28;20088;-59
2022/07/11 09:52:35;;;;;;;4.32;0.88;;;;;;;;;;5031837;28;20030;-56
2022/07/11 09:55:02;;;;;;;4.45;1.15;;;;;;;;;;5027293;28;20489;-56
2022/07/11 09:57:29;;;;;;;4.45;1.20;;;;;;;;;;5024301;28;20044;-57
2022/07/11 09:59:55;;;;;;;4.88;0.65;;;;;;;;;;5031179;28;20059;-57
2022/07/11 10:02:21;;;;;;;5.75;1.13;;;;;;;;;;5027199;28;20024;-57
2022/07/11 10:04:48;;;;;;;4.65;1.20;;;;;;;;;;5029368;28;20036;-57
2022/07/11 10:07:14;;;;;;;3.55;1.00;;;;;;;;;;5023588;28;20560;-57
2022/07/11 10:09:40;;;;;;;5.28;1.27;;;;;;;;;;5027465;28;20057;-56
2022/07/11 10:12:07;;;;;;;8.25;1.30;;;;;;;;;;5029953;28;20405;-56
2022/07/11 10:14:35;;;;;;;7.07;1.08;;;;;;;;;;5024698;28;20445;-58
2022/07/11 10:17:16;;;;;;;3.38;0.88;;;;;;;;;;5028336;28;20041;-58
2022/07/11 10:19:53;;;;;;;3.17;0.63;;;;;;;;;;5034984;28;20025;-57
2022/07/11 10:22:30;;;;;;;3.63;0.80;;;;;;;;;;5030737;28;20499;-57
2022/07/11 10:25:15;;;;;;;3.58;1.00;;;;;;;;;;5025064;28;20060;-58
2022/07/11 10:27:49;;;;;;;5.72;1.05;;;;;;;;;;5030351;28;20029;-58
2022/07/11 10:30:35;;;;;;;4.60;0.90;;;;;;;;;;5023613;28;20029;-58
2022/07/11 10:33:06;;;;;;;7.45;1.00;;;;;;;;;;5023182;28;20035;-58
2022/07/11 10:35:32;;;;;;;3.92;0.70;;;;;;;;;;5029852;28;20032;-58
2022/07/11 10:37:58;;;;;;;2.80;0.63;;;;;;;;;;5029058;28;20025;-57
2022/07/11 10:40:41;;;;;;;4.82;0.75;;;;;;;;;;5034199;28;20029;-57
2022/07/11 10:43:07;;;;;;;2.17;0.47;;;;;;;;;;5028154;28;20025;-57
2022/07/11 10:45:51;;;;;;;3.42;0.65;;;;;;;;;;5026109;28;20322;-58
2022/07/11 10:48:17;;;;;;;4.85;0.80;;;;;;;;;;5026866;28;20028;-58
2022/07/11 10:50:44;;;;;;;2.88;0.80;;;;;;;;;;5033596;28;20674;-58
2022/07/11 10:53:11;;;;;;;2.15;0.43;;;;;;;;;;5014032;28;20037;-58
2022/07/11 10:55:46;;;;;;;3.83;1.10;;;;;;;;;;5023878;28;20041;-58
2022/07/11 10:58:33;;;;;;;4.57;0.77;;;;;;;;;;5027232;28;20041;-58
2022/07/11 11:01:11;;;;;;;5.50;1.35;;;;;;;;;;5023987;28;20444;-55
2022/07/11 11:03:37;;;;;;;3.63;0.80;;;;;;;;;;5023003;28;20026;-58
2022/07/11 11:06:03;;;;;;;2.80;0.75;;;;;;;;;;5032620;28;20118;-57
2022/07/11 11:08:33;;;;;;;3.20;0.90;;;;;;;;;;5021359;28;20037;-58
2022/07/11 11:11:03;;;;;;;4.30;0.90;;;;;;;;;;5026145;28;20258;-58
2022/07/11 11:13:30;;;;;;;8.10;0.85;;;;;;;;;;5029099;28;20556;-57
2022/07/11 11:16:00;;;;;;;2.95;0.60;;;;;;;;;;5024032;28;20117;-57
2022/07/11 11:18:26;;;;;;;1.90;0.60;;;;;;;;;;5027344;28;20064;-58
2022/07/11 11:20:58;;;;;;;4.30;0.50;;;;;;;;;;5029861;28;20025;-57
2022/07/11 11:23:24;;;;;;;2.15;0.52;;;;;;;;;;5024152;28;20030;-55
2022/07/11 11:25:50;;;;;;;2.72;0.90;;;;;;;;;;5025935;28;20167;-58
2022/07/11 11:28:23;;;;;;;2.03;0.43;;;;;;;;;;5028836;28;20029;-57
2022/07/11 11:30:56;;;;;;;4.22;0.70;;;;;;;;;;5022110;28;20805;-56
2022/07/11 11:33:22;;;;;;;2.50;0.73;;;;;;;;;;5032918;28;20104;-58
2022/07/11 11:36:09;;;;;;;6.32;0.63;;;;;;;;;;5026140;28;20038;-58
2022/07/11 11:38:36;;;;;;;3.33;0.60;;;;;;;;;;5025434;28;20032;-58
2022/07/11 11:41:02;;;;;;;1.85;0.60;;;;;;;;;;5024683;28;20018;-58
2022/07/11 11:43:28;;;;;;;3.72;0.85;;;;;;;;;;5024438;28;20180;-57
2022/07/11 11:45:55;;;;;;;2.75;0.63;;;;;;;;;;5026891;28;20109;-58
2022/07/11 11:48:26;;;;;;;3.67;0.70;;;;;;;;;;5021712;28;20037;-58
2022/07/11 11:50:53;;;;;;;3.58;0.60;;;;;;;;;;5027848;28;20033;-58
2022/07/11 11:53:19;;;;;;;2.78;0.57;;;;;;;;;;5019681;28;20072;-57
2022/07/11 11:55:45;;;;;;;2.90;0.60;;;;;;;;;;5021246;28;20706;-58
2022/07/11 11:58:12;;;;;;;2.08;0.60;;;;;;;;;;5028886;28;20034;-58
2022/07/11 12:00:38;;;;;;;2.30;0.52;;;;;;;;;;5031546;28;20112;-58
2022/07/11 12:03:04;;;;;;;5.60;0.68;;;;;;;;;;5030107;28;20033;-58
2022/07/11 12:05:30;;;;;;;3.63;0.57;;;;;;;;;;5032660;28;20032;-58
2022/07/11 12:07:56;;;;;;;2.40;0.60;;;;;;;;;;5032052;28;20068;-55
2022/07/11 12:10:22;;;;;;;2.05;0.50;;;;;;;;;;5033471;28;20644;-58
2022/07/11 12:12:48;;;;;;;6.00;0.93;;;;;;;;;;5029288;28;20041;-58
2022/07/11 12:18:19;;;;;;;1.50;0.60;;;;;;;;;;5016758;28;20028;-58
2022/07/11 12:20:45;;;;;;;2.20;0.50;;;;;;;;;;5028743;28;20033;-57
2022/07/11 12:23:18;;;;;;;2.38;0.60;;;;;;;;;;5031393;28;21725;-59
2022/07/11 12:25:44;;;;;;;3.42;0.60;;;;;;;;;;5021012;28;20410;-58
2022/07/11 12:28:10;;;;;;;1.20;0.32;;;;;;;;;;5026507;28;20038;-57
2022/07/11 12:30:37;;;;;;;1.88;0.50;;;;;;;;;;5033118;28;20075;-58
2022/07/11 12:33:13;;;;;;;3.53;0.80;;;;;;;;;;5023457;28;20378;-57
2022/07/11 12:35:55;;;;;;;2.00;0.40;;;;;;;;;;5026177;28;20577;-58
2022/07/11 12:38:22;;;;;;;5.10;0.88;;;;;;;;;;5030909;28;20493;-57
2022/07/11 12:41:04;;;;;;;1.00;0.30;;;;;;;;;;5033007;28;20495;-58
2022/07/11 12:46:47;;;;;;;2.78;0.35;;;;;;;;;;5020114;28;20144;-57
2022/07/11 12:49:13;;;;;;;2.38;0.30;;;;;;;;;;5021386;28;20039;-57
2022/07/11 12:51:40;;;;;;;1.80;0.47;;;;;;;;;;5032882;28;20096;-55
2022/07/11 12:54:10;;;;;;;1.13;0.40;;;;;;;;;;5047062;28;20041;-57
2022/07/11 12:56:37;;;;;;;2.83;0.45;;;;;;;;;;5033002;28;20095;-57
2022/07/11 12:59:03;;;;;;;3.78;1.13;;;;;;;;;;5032898;28;20487;-58
2022/07/11 13:01:30;;;;;;;3.13;0.50;;;;;;;;;;5031387;28;20056;-58
2022/07/11 13:03:56;;;;;;;1.55;0.35;;;;;;;;;;5032896;28;20053;-58
2022/07/11 13:09:07;;;;;;;0.82;0.25;;;;;;;;;;5027601;28;20130;-58
2022/07/11 13:11:33;;;;;;;2.72;0.32;;;;;;;;;;5029555;28;20096;-58
2022/07/11 13:13:59;;;;;;;0.63;0.30;;;;;;;;;;5028943;28;20025;-58
2022/07/11 13:16:25;;;;;;;3.60;0.47;;;;;;;;;;5031207;28;20026;-58
2022/07/11 13:18:51;;;;;;;1.92;0.30;;;;;;;;;;5031560;28;20116;-58
2022/07/11 13:21:17;;;;;;;1.15;0.20;;;;;;;;;;5031661;28;20022;-58
2022/07/11 13:23:43;;;;;;;3.42;0.60;;;;;;;;;;5032720;28;20052;-58
2022/07/11 13:26:10;;;;;;;1.20;0.40;;;;;;;;;;5032673;28;20025;-57
2022/07/11 13:28:37;;;;;;;3.35;0.32;;;;;;;;;;5032621;28;20084;-58
2022/07/11 13:31:08;;;;;;;0.82;0.30;;;;;;;;;;5032197;28;20104;-56
2022/07/11 13:33:34;;;;;;;2.88;0.35;;;;;;;;;;5027961;28;20120;-56
2022/07/11 13:36:00;;;;;;;2.03;0.40;;;;;;;;;;5032554;28;20029;-57
2022/07/11 13:38:26;;;;;;;2.22;0.20;;;;;;;;;;5032355;28;20029;-57
2022/07/11 13:40:52;;;;;;;1.23;0.35;;;;;;;;;;5034978;28;20411;-58
2022/07/11 13:43:18;;;;;;;6.47;0.47;;;;;;;;;;5042708;28;20049;-56
2022/07/11 13:45:45;;;;;;;5.30;0.60;;;;;;;;;;5031981;28;20432;-57
2022/07/11 13:48:11;;;;;;;4.80;0.35;;;;;;;;;;5023700;28;20018;-56
2022/07/11 13:50:37;;;;;;;2.63;0.55;;;;;;;;;;5019914;28;20731;-58
2022/07/11 13:53:04;;;;;;;2.30;0.20;;;;;;;;;;5032232;28;20033;-57
2022/07/11 13:55:29;;;;;;;3.03;0.20;;;;;;;;;;5032053;28;20053;-58
2022/07/11 13:57:56;;;;;;;2.72;0.10;;;;;;;;;;5028796;28;20034;-58
2022/07/11 14:00:23;;;;;;;0.80;0.30;;;;;;;;;;5017804;28;20026;-54
2022/07/11 14:02:49;;;;;;;2.35;0.40;;;;;;;;;;5029992;28;20473;-55
2022/07/11 14:05:18;;;;;;;1.67;0.30;;;;;;;;;;5031843;28;20093;-56
2022/07/11 14:07:44;;;;;;;0.77;0.10;;;;;;;;;;5031789;28;20121;-55
2022/07/11 14:10:10;;;;;;;2.33;0.28;;;;;;;;;;5029880;28;20029;-56
2022/07/11 14:12:36;;;;;;;3.33;0.43;;;;;;;;;;5031733;28;20090;-55
2022/07/11 14:15:02;;;;;;;2.25;0.38;;;;;;;;;;5030206;28;20021;-58
2022/07/11 14:17:28;;;;;;;1.20;0.38;;;;;;;;;;5025910;28;20029;-55
2022/07/11 14:19:55;;;;;;;1.50;0.32;;;;;;;;;;5011665;28;20022;-57
2022/07/11 14:22:21;;;;;;;2.22;0.38;;;;;;;;;;5028973;28;20029;-58
2022/07/11 14:24:48;;;;;;;0.70;0.30;;;;;;;;;;5029687;28;20031;-58
2022/07/11 14:27:14;;;;;;;2.00;0.82;;;;;;;;;;5028953;28;20021;-58
2022/07/11 14:29:41;;;;;;;1.15;0.35;;;;;;;;;;5031114;28;20033;-57
2022/07/11 14:32:07;;;;;;;2.22;0.30;;;;;;;;;;5031014;28;20551;-58
2022/07/11 14:34:33;;;;;;;2.17;0.50;;;;;;;;;;5030220;28;20492;-58
2022/07/11 14:36:59;;;;;;;2.13;0.50;;;;;;;;;;5031390;28;20028;-58
2022/07/11 14:39:25;;;;;;;4.00;0.52;;;;;;;;;;5031271;28;20500;-57
2022/07/11 14:41:51;;;;;;;3.15;0.45;;;;;;;;;;5042105;28;20469;-58
2022/07/11 14:44:17;;;;;;;1.92;0.50;;;;;;;;;;5032951;28;20029;-57
2022/07/11 14:46:43;;;;;;;1.67;0.65;;;;;;;;;;5030913;28;20021;-58
2022/07/11 14:49:10;;;;;;;2.17;0.50;;;;;;;;;;5031028;28;20037;-58
2022/07/11 14:51:36;;;;;;;1.88;0.38;;;;;;;;;;5028782;28;20079;-58
2022/07/11 14:54:02;;;;;;;2.22;0.50;;;;;;;;;;5031037;28;20469;-58
2022/07/11 14:56:28;;;;;;;2.40;0.50;;;;;;;;;;5031015;28;20038;-58
2022/07/11 14:58:54;;;;;;;2.33;0.38;;;;;;;;;;5030720;28;20017;-58